sensor_id;sensor_type;location;lat;lon;timestamp;P1;durP1;ratioP1;P2;durP2;ratioP2
48623;SDS011;34422;45.802;16.114;2022-12-29T00:01:59;121.60;;;67.03;;
48623;SDS011;34422;45.802;16.114;2022-12-29T00:04:26;117.73;;;65.77;;
48623;SDS011;34422;45.802;16.114;2022-12-29T00:06:53;109.13;;;63.83;;
48623;SDS011;34422;45.802;16.114;2022-12-29T00:09:20;119.45;;;66.70;;
48623;SDS011;34422;45.802;16.114;2022-12-29T00:11:47;108.30;;;62.93;;
48623;SDS011;34422;45.802;16.114;2022-12-29T00:14:16;117.13;;;68.03;;
48623;SDS011;34422;45.802;16.114;2022-12-29T00:17:02;113.60;;;65.50;;
48623;SDS011;34422;45.802;16.114;2022-12-29T00:19:29;115.63;;;68.87;;
48623;SDS011;34422;45.802;16.114;2022-12-29T00:22:14;120.27;;;69.60;;
48623;SDS011;34422;45.802;16.114;2022-12-29T00:25:00;111.50;;;64.03;;
48623;SDS011;34422;45.802;16.114;2022-12-29T00:27:45;118.37;;;66.10;;
48623;SDS011;34422;45.802;16.114;2022-12-29T00:30:31;109.67;;;66.93;;
48623;SDS011;34422;45.802;16.114;2022-12-29T00:33:17;117.70;;;70.37;;
48623;SDS011;34422;45.802;16.114;2022-12-29T00:36:18;120.60;;;68.37;;
48623;SDS011;34422;45.802;16.114;2022-12-29T00:38:51;140.40;;;75.83;;
48623;SDS011;34422;45.802;16.114;2022-12-29T00:41:40;129.93;;;70.60;;
48623;SDS011;34422;45.802;16.114;2022-12-29T00:44:25;109.57;;;60.90;;
48623;SDS011;34422;45.802;16.114;2022-12-29T00:46:52;103.93;;;62.47;;
48623;SDS011;34422;45.802;16.114;2022-12-29T00:49:19;111.33;;;62.40;;
48623;SDS011;34422;45.802;16.114;2022-12-29T00:52:03;110.87;;;63.03;;
48623;SDS011;34422;45.802;16.114;2022-12-29T00:54:32;96.97;;;58.43;;
48623;SDS011;34422;45.802;16.114;2022-12-29T00:57:01;108.53;;;66.00;;
48623;SDS011;34422;45.802;16.114;2022-12-29T00:59:29;108.07;;;66.40;;
48623;SDS011;34422;45.802;16.114;2022-12-29T01:01:56;101.60;;;57.83;;
48623;SDS011;34422;45.802;16.114;2022-12-29T01:04:24;97.43;;;58.27;;
48623;SDS011;34422;45.802;16.114;2022-12-29T01:06:52;84.77;;;51.20;;
48623;SDS011;34422;45.802;16.114;2022-12-29T01:09:19;93.00;;;51.53;;
48623;SDS011;34422;45.802;16.114;2022-12-29T01:12:05;94.40;;;53.70;;
48623;SDS011;34422;45.802;16.114;2022-12-29T01:14:33;86.23;;;52.07;;
48623;SDS011;34422;45.802;16.114;2022-12-29T01:17:00;82.90;;;50.93;;
48623;SDS011;34422;45.802;16.114;2022-12-29T01:19:27;89.83;;;51.30;;
48623;SDS011;34422;45.802;16.114;2022-12-29T01:21:54;96.10;;;52.33;;
48623;SDS011;34422;45.802;16.114;2022-12-29T01:24:21;97.43;;;56.70;;
48623;SDS011;34422;45.802;16.114;2022-12-29T01:26:48;104.73;;;57.00;;
48623;SDS011;34422;45.802;16.114;2022-12-29T01:29:15;101.23;;;58.10;;
48623;SDS011;34422;45.802;16.114;2022-12-29T01:31:43;95.70;;;57.40;;
48623;SDS011;34422;45.802;16.114;2022-12-29T01:34:10;94.27;;;55.60;;
48623;SDS011;34422;45.802;16.114;2022-12-29T01:36:37;92.90;;;55.67;;
48623;SDS011;34422;45.802;16.114;2022-12-29T01:39:04;84.97;;;51.70;;
48623;SDS011;34422;45.802;16.114;2022-12-29T01:41:31;90.93;;;53.90;;
48623;SDS011;34422;45.802;16.114;2022-12-29T01:43:58;98.17;;;54.03;;
48623;SDS011;34422;45.802;16.114;2022-12-29T01:51:29;91.57;;;52.57;;
48623;SDS011;34422;45.802;16.114;2022-12-29T01:54:00;86.22;;;51.55;;
48623;SDS011;34422;45.802;16.114;2022-12-29T01:56:31;88.93;;;50.33;;
48623;SDS011;34422;45.802;16.114;2022-12-29T01:59:04;98.07;;;52.30;;
48623;SDS011;34422;45.802;16.114;2022-12-29T02:01:41;86.67;;;50.13;;
48623;SDS011;34422;45.802;16.114;2022-12-29T02:04:09;82.47;;;49.83;;
48623;SDS011;34422;45.802;16.114;2022-12-29T02:06:41;88.53;;;49.80;;
48623;SDS011;34422;45.802;16.114;2022-12-29T02:09:13;81.10;;;49.60;;
48623;SDS011;34422;45.802;16.114;2022-12-29T02:11:39;87.07;;;51.43;;
48623;SDS011;34422;45.802;16.114;2022-12-29T02:14:10;90.23;;;50.40;;
48623;SDS011;34422;45.802;16.114;2022-12-29T02:22:27;89.33;;;50.97;;
48623;SDS011;34422;45.802;16.114;2022-12-29T02:36:37;90.83;;;57.00;;
48623;SDS011;34422;45.802;16.114;2022-12-29T02:41:53;89.47;;;55.00;;
48623;SDS011;34422;45.802;16.114;2022-12-29T02:47:27;99.60;;;58.50;;
48623;SDS011;34422;45.802;16.114;2022-12-29T02:50:22;102.30;;;60.65;;
48623;SDS011;34422;45.802;16.114;2022-12-29T02:55:31;96.40;;;57.50;;
48623;SDS011;34422;45.802;16.114;2022-12-29T02:58:17;99.43;;;59.25;;
48623;SDS011;34422;45.802;16.114;2022-12-29T03:01:01;109.13;;;64.40;;
48623;SDS011;34422;45.802;16.114;2022-12-29T03:15:45;90.85;;;58.50;;
48623;SDS011;34422;45.802;16.114;2022-12-29T03:18:46;102.95;;;58.55;;
48623;SDS011;34422;45.802;16.114;2022-12-29T03:21:35;94.60;;;56.42;;
48623;SDS011;34422;45.802;16.114;2022-12-29T03:24:50;91.93;;;54.92;;
48623;SDS011;34422;45.802;16.114;2022-12-29T03:27:25;90.90;;;55.33;;
48623;SDS011;34422;45.802;16.114;2022-12-29T03:29:57;102.13;;;59.67;;
48623;SDS011;34422;45.802;16.114;2022-12-29T03:32:28;113.10;;;63.55;;
48623;SDS011;34422;45.802;16.114;2022-12-29T03:35:11;114.78;;;64.82;;
48623;SDS011;34422;45.802;16.114;2022-12-29T03:37:43;100.30;;;57.85;;
48623;SDS011;34422;45.802;16.114;2022-12-29T03:40:16;88.32;;;53.88;;
48623;SDS011;34422;45.802;16.114;2022-12-29T03:42:45;90.28;;;54.53;;
48623;SDS011;34422;45.802;16.114;2022-12-29T03:45:13;88.93;;;54.38;;
48623;SDS011;34422;45.802;16.114;2022-12-29T03:47:40;83.32;;;51.08;;
48623;SDS011;34422;45.802;16.114;2022-12-29T03:50:06;86.15;;;54.25;;
48623;SDS011;34422;45.802;16.114;2022-12-29T03:52:35;87.80;;;54.50;;
48623;SDS011;34422;45.802;16.114;2022-12-29T03:55:01;88.38;;;53.90;;
48623;SDS011;34422;45.802;16.114;2022-12-29T03:57:28;86.78;;;53.00;;
48623;SDS011;34422;45.802;16.114;2022-12-29T03:59:55;85.35;;;50.58;;
48623;SDS011;34422;45.802;16.114;2022-12-29T04:02:22;75.30;;;48.20;;
48623;SDS011;34422;45.802;16.114;2022-12-29T04:04:50;76.28;;;48.42;;
48623;SDS011;34422;45.802;16.114;2022-12-29T04:07:16;80.50;;;49.15;;
48623;SDS011;34422;45.802;16.114;2022-12-29T04:09:43;87.22;;;53.08;;
48623;SDS011;34422;45.802;16.114;2022-12-29T04:12:10;86.55;;;50.42;;
48623;SDS011;34422;45.802;16.114;2022-12-29T04:14:37;87.05;;;52.00;;
48623;SDS011;34422;45.802;16.114;2022-12-29T04:17:03;87.60;;;52.90;;
48623;SDS011;34422;45.802;16.114;2022-12-29T04:19:30;85.50;;;52.90;;
48623;SDS011;34422;45.802;16.114;2022-12-29T04:21:59;91.13;;;53.97;;
48623;SDS011;34422;45.802;16.114;2022-12-29T04:24:25;90.47;;;52.95;;
48623;SDS011;34422;45.802;16.114;2022-12-29T04:26:52;89.32;;;55.13;;
48623;SDS011;34422;45.802;16.114;2022-12-29T04:29:19;97.35;;;58.38;;
48623;SDS011;34422;45.802;16.114;2022-12-29T04:31:46;93.35;;;54.72;;
48623;SDS011;34422;45.802;16.114;2022-12-29T04:34:12;91.95;;;56.50;;
48623;SDS011;34422;45.802;16.114;2022-12-29T04:36:39;94.70;;;55.70;;
48623;SDS011;34422;45.802;16.114;2022-12-29T04:39:07;89.17;;;57.27;;
48623;SDS011;34422;45.802;16.114;2022-12-29T04:41:33;97.47;;;57.35;;
48623;SDS011;34422;45.802;16.114;2022-12-29T04:44:00;93.85;;;55.60;;
48623;SDS011;34422;45.802;16.114;2022-12-29T04:46:27;96.37;;;56.03;;
48623;SDS011;34422;45.802;16.114;2022-12-29T04:48:54;98.03;;;59.03;;
48623;SDS011;34422;45.802;16.114;2022-12-29T04:51:21;90.53;;;53.20;;
48623;SDS011;34422;45.802;16.114;2022-12-29T04:53:48;92.33;;;57.30;;
48623;SDS011;34422;45.802;16.114;2022-12-29T04:56:15;95.33;;;56.87;;
48623;SDS011;34422;45.802;16.114;2022-12-29T04:58:42;96.35;;;55.35;;
48623;SDS011;34422;45.802;16.114;2022-12-29T05:01:09;99.77;;;60.27;;
48623;SDS011;34422;45.802;16.114;2022-12-29T05:03:36;95.50;;;58.40;;
48623;SDS011;34422;45.802;16.114;2022-12-29T05:06:02;99.60;;;55.30;;
48623;SDS011;34422;45.802;16.114;2022-12-29T05:08:29;91.17;;;55.23;;
48623;SDS011;34422;45.802;16.114;2022-12-29T05:10:56;95.37;;;53.50;;
48623;SDS011;34422;45.802;16.114;2022-12-29T05:13:23;91.23;;;54.50;;
48623;SDS011;34422;45.802;16.114;2022-12-29T05:15:50;95.07;;;54.47;;
48623;SDS011;34422;45.802;16.114;2022-12-29T05:18:18;98.23;;;57.43;;
48623;SDS011;34422;45.802;16.114;2022-12-29T05:20:46;101.67;;;55.27;;
48623;SDS011;34422;45.802;16.114;2022-12-29T05:23:13;87.33;;;54.13;;
48623;SDS011;34422;45.802;16.114;2022-12-29T05:25:40;91.30;;;52.70;;
48623;SDS011;34422;45.802;16.114;2022-12-29T05:28:07;96.80;;;58.67;;
48623;SDS011;34422;45.802;16.114;2022-12-29T05:30:34;89.93;;;53.63;;
48623;SDS011;34422;45.802;16.114;2022-12-29T05:33:01;91.33;;;56.43;;
48623;SDS011;34422;45.802;16.114;2022-12-29T05:35:27;85.53;;;51.03;;
48623;SDS011;34422;45.802;16.114;2022-12-29T05:37:54;89.30;;;51.77;;
48623;SDS011;34422;45.802;16.114;2022-12-29T05:40:21;93.73;;;56.20;;
48623;SDS011;34422;45.802;16.114;2022-12-29T05:42:48;95.00;;;53.53;;
48623;SDS011;34422;45.802;16.114;2022-12-29T05:45:15;86.03;;;52.43;;
48623;SDS011;34422;45.802;16.114;2022-12-29T05:47:42;85.90;;;56.13;;
48623;SDS011;34422;45.802;16.114;2022-12-29T05:50:08;94.63;;;54.43;;
48623;SDS011;34422;45.802;16.114;2022-12-29T05:52:35;87.87;;;54.13;;
48623;SDS011;34422;45.802;16.114;2022-12-29T05:55:02;85.60;;;49.63;;
48623;SDS011;34422;45.802;16.114;2022-12-29T05:57:29;77.57;;;48.13;;
48623;SDS011;34422;45.802;16.114;2022-12-29T05:59:56;82.80;;;48.67;;
48623;SDS011;34422;45.802;16.114;2022-12-29T06:02:22;81.77;;;50.37;;
48623;SDS011;34422;45.802;16.114;2022-12-29T06:04:49;81.43;;;48.38;;
48623;SDS011;34422;45.802;16.114;2022-12-29T06:07:16;88.47;;;52.37;;
48623;SDS011;34422;45.802;16.114;2022-12-29T06:09:43;85.53;;;50.40;;
48623;SDS011;34422;45.802;16.114;2022-12-29T06:12:10;82.40;;;49.40;;
48623;SDS011;34422;45.802;16.114;2022-12-29T06:14:37;87.33;;;51.17;;
48623;SDS011;34422;45.802;16.114;2022-12-29T06:17:03;87.67;;;50.80;;
48623;SDS011;34422;45.802;16.114;2022-12-29T06:19:30;144.40;;;76.70;;
48623;SDS011;34422;45.802;16.114;2022-12-29T06:21:58;112.30;;;61.80;;
48623;SDS011;34422;45.802;16.114;2022-12-29T06:24:24;114.33;;;68.20;;
48623;SDS011;34422;45.802;16.114;2022-12-29T06:26:51;114.77;;;66.17;;
48623;SDS011;34422;45.802;16.114;2022-12-29T06:29:18;106.20;;;60.73;;
48623;SDS011;34422;45.802;16.114;2022-12-29T06:31:46;98.87;;;57.90;;
48623;SDS011;34422;45.802;16.114;2022-12-29T06:34:14;97.40;;;55.90;;
48623;SDS011;34422;45.802;16.114;2022-12-29T06:36:41;89.07;;;52.73;;
48623;SDS011;34422;45.802;16.114;2022-12-29T06:39:09;97.93;;;57.30;;
48623;SDS011;34422;45.802;16.114;2022-12-29T06:41:37;90.50;;;53.67;;
48623;SDS011;34422;45.802;16.114;2022-12-29T06:44:04;88.57;;;51.93;;
48623;SDS011;34422;45.802;16.114;2022-12-29T06:46:31;92.60;;;51.97;;
48623;SDS011;34422;45.802;16.114;2022-12-29T06:48:57;96.93;;;53.23;;
48623;SDS011;34422;45.802;16.114;2022-12-29T06:51:24;98.38;;;57.60;;
48623;SDS011;34422;45.802;16.114;2022-12-29T06:53:51;106.78;;;61.38;;
48623;SDS011;34422;45.802;16.114;2022-12-29T06:56:18;101.20;;;58.43;;
48623;SDS011;34422;45.802;16.114;2022-12-29T06:58:44;92.60;;;53.93;;
48623;SDS011;34422;45.802;16.114;2022-12-29T07:01:11;86.65;;;53.10;;
48623;SDS011;34422;45.802;16.114;2022-12-29T07:03:38;85.35;;;52.85;;
48623;SDS011;34422;45.802;16.114;2022-12-29T07:06:07;82.05;;;49.85;;
48623;SDS011;34422;45.802;16.114;2022-12-29T07:08:34;85.47;;;51.22;;
48623;SDS011;34422;45.802;16.114;2022-12-29T07:11:01;74.03;;;46.85;;
48623;SDS011;34422;45.802;16.114;2022-12-29T07:13:28;87.43;;;49.63;;
48623;SDS011;34422;45.802;16.114;2022-12-29T07:15:55;109.60;;;58.20;;
48623;SDS011;34422;45.802;16.114;2022-12-29T07:18:21;82.95;;;49.95;;
48623;SDS011;34422;45.802;16.114;2022-12-29T07:20:48;128.40;;;70.93;;
48623;SDS011;34422;45.802;16.114;2022-12-29T07:23:15;104.75;;;61.80;;
48623;SDS011;34422;45.802;16.114;2022-12-29T07:25:42;133.48;;;71.53;;
48623;SDS011;34422;45.802;16.114;2022-12-29T07:28:09;141.30;;;79.05;;
48623;SDS011;34422;45.802;16.114;2022-12-29T07:30:36;102.30;;;59.22;;
48623;SDS011;34422;45.802;16.114;2022-12-29T07:33:03;115.40;;;69.45;;
48623;SDS011;34422;45.802;16.114;2022-12-29T07:35:30;108.18;;;65.65;;
48623;SDS011;34422;45.802;16.114;2022-12-29T07:37:57;98.47;;;62.03;;
48623;SDS011;34422;45.802;16.114;2022-12-29T07:40:24;98.90;;;58.42;;
48623;SDS011;34422;45.802;16.114;2022-12-29T07:42:51;97.75;;;57.00;;
48623;SDS011;34422;45.802;16.114;2022-12-29T07:45:18;91.43;;;57.55;;
48623;SDS011;34422;45.802;16.114;2022-12-29T07:47:47;104.50;;;64.25;;
48623;SDS011;34422;45.802;16.114;2022-12-29T07:50:15;93.05;;;58.67;;
48623;SDS011;34422;45.802;16.114;2022-12-29T07:52:42;102.63;;;62.70;;
48623;SDS011;34422;45.802;16.114;2022-12-29T07:55:09;124.18;;;73.82;;
48623;SDS011;34422;45.802;16.114;2022-12-29T07:57:36;129.23;;;75.03;;
48623;SDS011;34422;45.802;16.114;2022-12-29T08:00:03;120.47;;;74.40;;
48623;SDS011;34422;45.802;16.114;2022-12-29T08:02:30;104.22;;;65.40;;
48623;SDS011;34422;45.802;16.114;2022-12-29T08:04:57;113.68;;;66.68;;
48623;SDS011;34422;45.802;16.114;2022-12-29T08:07:23;92.25;;;56.30;;
48623;SDS011;34422;45.802;16.114;2022-12-29T08:09:50;69.95;;;45.95;;
48623;SDS011;34422;45.802;16.114;2022-12-29T08:12:17;67.95;;;42.45;;
48623;SDS011;34422;45.802;16.114;2022-12-29T08:14:44;65.95;;;41.72;;
48623;SDS011;34422;45.802;16.114;2022-12-29T08:17:11;62.03;;;40.50;;
48623;SDS011;34422;45.802;16.114;2022-12-29T08:19:37;58.05;;;39.50;;
48623;SDS011;34422;45.802;16.114;2022-12-29T08:22:04;55.58;;;36.55;;
48623;SDS011;34422;45.802;16.114;2022-12-29T08:24:31;53.47;;;35.03;;
48623;SDS011;34422;45.802;16.114;2022-12-29T08:26:58;55.08;;;37.55;;
48623;SDS011;34422;45.802;16.114;2022-12-29T08:29:28;54.47;;;37.85;;
48623;SDS011;34422;45.802;16.114;2022-12-29T08:31:55;53.95;;;37.17;;
48623;SDS011;34422;45.802;16.114;2022-12-29T08:34:22;51.53;;;38.10;;
48623;SDS011;34422;45.802;16.114;2022-12-29T08:36:52;57.67;;;40.05;;
48623;SDS011;34422;45.802;16.114;2022-12-29T08:39:19;57.25;;;42.13;;
48623;SDS011;34422;45.802;16.114;2022-12-29T08:41:46;57.70;;;40.78;;
48623;SDS011;34422;45.802;16.114;2022-12-29T08:44:12;54.15;;;39.95;;
48623;SDS011;34422;45.802;16.114;2022-12-29T08:46:39;55.75;;;38.08;;
48623;SDS011;34422;45.802;16.114;2022-12-29T08:49:06;50.00;;;36.60;;
48623;SDS011;34422;45.802;16.114;2022-12-29T08:51:33;50.08;;;37.20;;
48623;SDS011;34422;45.802;16.114;2022-12-29T08:54:00;53.47;;;38.03;;
48623;SDS011;34422;45.802;16.114;2022-12-29T08:56:27;57.90;;;43.88;;
48623;SDS011;34422;45.802;16.114;2022-12-29T08:58:54;54.70;;;39.22;;
48623;SDS011;34422;45.802;16.114;2022-12-29T09:01:21;51.85;;;38.58;;
48623;SDS011;34422;45.802;16.114;2022-12-29T09:03:48;53.83;;;37.70;;
48623;SDS011;34422;45.802;16.114;2022-12-29T09:06:16;59.13;;;39.67;;
48623;SDS011;34422;45.802;16.114;2022-12-29T09:08:43;55.53;;;36.70;;
48623;SDS011;34422;45.802;16.114;2022-12-29T09:13:40;52.50;;;40.28;;
48623;SDS011;34422;45.802;16.114;2022-12-29T09:16:07;61.58;;;42.90;;
48623;SDS011;34422;45.802;16.114;2022-12-29T09:18:34;60.85;;;42.58;;
48623;SDS011;34422;45.802;16.114;2022-12-29T09:21:02;60.50;;;44.17;;
48623;SDS011;34422;45.802;16.114;2022-12-29T09:23:31;59.47;;;42.17;;
48623;SDS011;34422;45.802;16.114;2022-12-29T09:25:59;65.18;;;44.85;;
48623;SDS011;34422;45.802;16.114;2022-12-29T09:28:26;65.30;;;46.95;;
48623;SDS011;34422;45.802;16.114;2022-12-29T09:30:55;61.30;;;45.92;;
48623;SDS011;34422;45.802;16.114;2022-12-29T09:33:24;58.83;;;46.58;;
48623;SDS011;34422;45.802;16.114;2022-12-29T09:35:55;62.35;;;42.33;;
48623;SDS011;34422;45.802;16.114;2022-12-29T09:38:24;55.95;;;40.85;;
48623;SDS011;34422;45.802;16.114;2022-12-29T09:41:13;60.20;;;40.88;;
48623;SDS011;34422;45.802;16.114;2022-12-29T09:46:31;51.60;;;34.30;;
48623;SDS011;34422;45.802;16.114;2022-12-29T09:51:32;38.65;;;26.23;;
48623;SDS011;34422;45.802;16.114;2022-12-29T09:56:40;42.42;;;26.92;;
48623;SDS011;34422;45.802;16.114;2022-12-29T09:59:10;42.40;;;26.63;;
48623;SDS011;34422;45.802;16.114;2022-12-29T10:02:04;36.75;;;23.73;;
48623;SDS011;34422;45.802;16.114;2022-12-29T10:04:46;33.30;;;22.02;;
48623;SDS011;34422;45.802;16.114;2022-12-29T10:12:52;25.13;;;17.58;;
48623;SDS011;34422;45.802;16.114;2022-12-29T10:15:49;79.10;;;54.90;;
48623;SDS011;34422;45.802;16.114;2022-12-29T10:24:48;48.85;;;34.85;;
48623;SDS011;34422;45.802;16.114;2022-12-29T10:29:55;38.75;;;25.98;;
48623;SDS011;34422;45.802;16.114;2022-12-29T10:32:34;34.92;;;23.42;;
48623;SDS011;34422;45.802;16.114;2022-12-29T10:40:38;31.73;;;21.45;;
48623;SDS011;34422;45.802;16.114;2022-12-29T10:43:32;33.22;;;21.73;;
48623;SDS011;34422;45.802;16.114;2022-12-29T10:45:58;31.13;;;20.75;;
48623;SDS011;34422;45.802;16.114;2022-12-29T10:48:31;27.23;;;18.70;;
48623;SDS011;34422;45.802;16.114;2022-12-29T10:51:00;28.90;;;18.40;;
48623;SDS011;34422;45.802;16.114;2022-12-29T10:53:33;25.52;;;18.10;;
48623;SDS011;34422;45.802;16.114;2022-12-29T10:56:01;25.50;;;17.92;;
48623;SDS011;34422;45.802;16.114;2022-12-29T10:58:31;32.47;;;20.48;;
48623;SDS011;34422;45.802;16.114;2022-12-29T11:00:59;23.58;;;15.88;;
48623;SDS011;34422;45.802;16.114;2022-12-29T11:03:31;27.52;;;16.17;;
48623;SDS011;34422;45.802;16.114;2022-12-29T11:06:24;24.38;;;16.27;;
48623;SDS011;34422;45.802;16.114;2022-12-29T11:09:01;23.52;;;16.65;;
48623;SDS011;34422;45.802;16.114;2022-12-29T11:11:41;22.55;;;16.25;;
48623;SDS011;34422;45.802;16.114;2022-12-29T11:14:13;25.75;;;17.17;;
48623;SDS011;34422;45.802;16.114;2022-12-29T11:16:44;25.08;;;17.25;;
48623;SDS011;34422;45.802;16.114;2022-12-29T11:19:27;23.60;;;16.77;;
48623;SDS011;34422;45.802;16.114;2022-12-29T11:24:46;23.33;;;16.40;;
48623;SDS011;34422;45.802;16.114;2022-12-29T11:27:18;24.80;;;15.88;;
48623;SDS011;34422;45.802;16.114;2022-12-29T11:29:50;23.98;;;16.42;;
48623;SDS011;34422;45.802;16.114;2022-12-29T11:32:18;26.20;;;18.13;;
48623;SDS011;34422;45.802;16.114;2022-12-29T11:34:50;22.58;;;16.33;;
48623;SDS011;34422;45.802;16.114;2022-12-29T11:37:18;22.80;;;16.33;;
48623;SDS011;34422;45.802;16.114;2022-12-29T11:39:56;26.90;;;15.38;;
48623;SDS011;34422;45.802;16.114;2022-12-29T11:42:35;19.38;;;13.93;;
48623;SDS011;34422;45.802;16.114;2022-12-29T11:45:26;17.73;;;11.23;;
48623;SDS011;34422;45.802;16.114;2022-12-29T11:50:24;18.15;;;12.57;;
48623;SDS011;34422;45.802;16.114;2022-12-29T11:56:02;19.35;;;12.68;;
48623;SDS011;34422;45.802;16.114;2022-12-29T11:58:33;21.92;;;13.23;;
48623;SDS011;34422;45.802;16.114;2022-12-29T12:01:04;19.88;;;13.52;;
48623;SDS011;34422;45.802;16.114;2022-12-29T12:06:45;17.10;;;11.52;;
48623;SDS011;34422;45.802;16.114;2022-12-29T12:09:43;17.85;;;11.88;;
48623;SDS011;34422;45.802;16.114;2022-12-29T12:12:15;18.35;;;10.90;;
48623;SDS011;34422;45.802;16.114;2022-12-29T12:14:55;15.43;;;10.00;;
48623;SDS011;34422;45.802;16.114;2022-12-29T12:17:33;15.13;;;10.00;;
48623;SDS011;34422;45.802;16.114;2022-12-29T12:20:12;17.33;;;12.15;;
48623;SDS011;34422;45.802;16.114;2022-12-29T12:22:46;18.02;;;11.68;;
48623;SDS011;34422;45.802;16.114;2022-12-29T12:25:21;19.27;;;12.55;;
48623;SDS011;34422;45.802;16.114;2022-12-29T12:27:57;19.23;;;12.48;;
48623;SDS011;34422;45.802;16.114;2022-12-29T12:30:33;20.77;;;13.23;;
48623;SDS011;34422;45.802;16.114;2022-12-29T12:33:52;19.35;;;12.45;;
48623;SDS011;34422;45.802;16.114;2022-12-29T12:39:05;18.95;;;13.20;;
48623;SDS011;34422;45.802;16.114;2022-12-29T12:44:12;22.90;;;14.57;;
48623;SDS011;34422;45.802;16.114;2022-12-29T12:46:51;19.08;;;11.23;;
48623;SDS011;34422;45.802;16.114;2022-12-29T12:58:40;16.02;;;9.88;;
48623;SDS011;34422;45.802;16.114;2022-12-29T13:01:19;16.73;;;10.23;;
48623;SDS011;34422;45.802;16.114;2022-12-29T13:04:12;13.75;;;9.48;;
48623;SDS011;34422;45.802;16.114;2022-12-29T13:12:40;17.45;;;11.40;;
48623;SDS011;34422;45.802;16.114;2022-12-29T13:18:05;15.57;;;9.23;;
48623;SDS011;34422;45.802;16.114;2022-12-29T13:20:57;27.98;;;15.35;;
48623;SDS011;34422;45.802;16.114;2022-12-29T13:26:21;24.27;;;14.70;;
48623;SDS011;34422;45.802;16.114;2022-12-29T13:31:46;32.90;;;18.80;;
48623;SDS011;34422;45.802;16.114;2022-12-29T13:34:19;26.95;;;16.77;;
48623;SDS011;34422;45.802;16.114;2022-12-29T13:37:09;28.42;;;17.17;;
48623;SDS011;34422;45.802;16.114;2022-12-29T13:39:46;29.55;;;17.00;;
48623;SDS011;34422;45.802;16.114;2022-12-29T13:42:16;24.15;;;15.93;;
48623;SDS011;34422;45.802;16.114;2022-12-29T13:44:46;24.35;;;17.60;;
48623;SDS011;34422;45.802;16.114;2022-12-29T13:47:25;25.27;;;17.38;;
48623;SDS011;34422;45.802;16.114;2022-12-29T13:49:58;24.92;;;17.40;;
48623;SDS011;34422;45.802;16.114;2022-12-29T13:52:32;27.23;;;18.00;;
48623;SDS011;34422;45.802;16.114;2022-12-29T14:01:00;18.20;;;12.88;;
48623;SDS011;34422;45.802;16.114;2022-12-29T14:06:19;15.73;;;10.70;;
48623;SDS011;34422;45.802;16.114;2022-12-29T14:08:46;15.47;;;10.27;;
48623;SDS011;34422;45.802;16.114;2022-12-29T14:11:14;19.05;;;11.60;;
48623;SDS011;34422;45.802;16.114;2022-12-29T14:13:45;22.48;;;11.82;;
48623;SDS011;34422;45.802;16.114;2022-12-29T14:16:25;17.65;;;10.60;;
48623;SDS011;34422;45.802;16.114;2022-12-29T14:19:10;16.92;;;11.00;;
48623;SDS011;34422;45.802;16.114;2022-12-29T14:21:41;16.73;;;11.02;;
48623;SDS011;34422;45.802;16.114;2022-12-29T14:34:52;19.63;;;12.10;;
48623;SDS011;34422;45.802;16.114;2022-12-29T14:37:24;18.38;;;11.15;;
48623;SDS011;34422;45.802;16.114;2022-12-29T14:42:42;16.90;;;11.85;;
48623;SDS011;34422;45.802;16.114;2022-12-29T14:47:46;19.23;;;11.68;;
48623;SDS011;34422;45.802;16.114;2022-12-29T14:50:15;17.48;;;11.77;;
48623;SDS011;34422;45.802;16.114;2022-12-29T14:55:40;24.48;;;16.42;;
48623;SDS011;34422;45.802;16.114;2022-12-29T14:58:14;27.23;;;18.20;;
48623;SDS011;34422;45.802;16.114;2022-12-29T15:01:02;29.10;;;19.42;;
48623;SDS011;34422;45.802;16.114;2022-12-29T15:03:29;30.25;;;21.00;;
48623;SDS011;34422;45.802;16.114;2022-12-29T15:06:05;38.55;;;23.77;;
48623;SDS011;34422;45.802;16.114;2022-12-29T15:08:43;38.13;;;24.48;;
48623;SDS011;34422;45.802;16.114;2022-12-29T15:11:13;36.85;;;24.27;;
48623;SDS011;34422;45.802;16.114;2022-12-29T15:13:43;46.17;;;26.50;;
48623;SDS011;34422;45.802;16.114;2022-12-29T15:18:50;37.60;;;25.88;;
48623;SDS011;34422;45.802;16.114;2022-12-29T15:21:17;34.03;;;24.23;;
48623;SDS011;34422;45.802;16.114;2022-12-29T15:23:49;40.80;;;25.85;;
48623;SDS011;34422;45.802;16.114;2022-12-29T15:26:17;35.33;;;25.98;;
48623;SDS011;34422;45.802;16.114;2022-12-29T15:28:49;41.85;;;29.17;;
48623;SDS011;34422;45.802;16.114;2022-12-29T15:31:19;47.15;;;30.90;;
48623;SDS011;34422;45.802;16.114;2022-12-29T15:33:47;39.53;;;28.70;;
48623;SDS011;34422;45.802;16.114;2022-12-29T15:38:48;43.10;;;31.70;;
48623;SDS011;34422;45.802;16.114;2022-12-29T15:41:20;48.33;;;33.90;;
48623;SDS011;34422;45.802;16.114;2022-12-29T15:44:04;51.78;;;36.38;;
48623;SDS011;34422;45.802;16.114;2022-12-29T15:46:33;49.13;;;34.65;;
48623;SDS011;34422;45.802;16.114;2022-12-29T15:49:00;57.67;;;37.03;;
48623;SDS011;34422;45.802;16.114;2022-12-29T15:51:37;55.33;;;35.45;;
48623;SDS011;34422;45.802;16.114;2022-12-29T15:54:06;53.22;;;33.75;;
48623;SDS011;34422;45.802;16.114;2022-12-29T15:56:41;49.97;;;34.47;;
48623;SDS011;34422;45.802;16.114;2022-12-29T16:01:55;49.58;;;32.90;;
48623;SDS011;34422;45.802;16.114;2022-12-29T16:04:23;49.03;;;32.22;;
48623;SDS011;34422;45.802;16.114;2022-12-29T16:06:55;52.15;;;34.15;;
48623;SDS011;34422;45.802;16.114;2022-12-29T16:09:33;52.30;;;34.40;;
48623;SDS011;34422;45.802;16.114;2022-12-29T16:12:03;51.85;;;34.80;;
48623;SDS011;34422;45.802;16.114;2022-12-29T16:14:36;50.78;;;35.40;;
48623;SDS011;34422;45.802;16.114;2022-12-29T16:17:11;51.20;;;34.70;;
48623;SDS011;34422;45.802;16.114;2022-12-29T16:19:40;51.03;;;34.15;;
48623;SDS011;34422;45.802;16.114;2022-12-29T16:22:19;52.53;;;34.13;;
48623;SDS011;34422;45.802;16.114;2022-12-29T16:25:02;48.05;;;31.45;;
48623;SDS011;34422;45.802;16.114;2022-12-29T16:27:35;50.53;;;32.20;;
48623;SDS011;34422;45.802;16.114;2022-12-29T16:30:05;52.33;;;35.05;;
48623;SDS011;34422;45.802;16.114;2022-12-29T16:32:46;58.17;;;37.25;;
48623;SDS011;34422;45.802;16.114;2022-12-29T16:35:24;56.28;;;36.83;;
48623;SDS011;34422;45.802;16.114;2022-12-29T16:43:27;51.28;;;32.85;;
48623;SDS011;34422;45.802;16.114;2022-12-29T16:46:11;46.72;;;32.05;;
48623;SDS011;34422;45.802;16.114;2022-12-29T16:48:55;44.97;;;30.88;;
48623;SDS011;34422;45.802;16.114;2022-12-29T16:53:58;33.95;;;23.15;;
48623;SDS011;34422;45.802;16.114;2022-12-29T16:56:27;34.35;;;23.73;;
48623;SDS011;34422;45.802;16.114;2022-12-29T17:01:56;41.00;;;25.45;;
48623;SDS011;34422;45.802;16.114;2022-12-29T17:04:24;39.85;;;27.45;;
48623;SDS011;34422;45.802;16.114;2022-12-29T17:06:51;40.83;;;27.52;;
48623;SDS011;34422;45.802;16.114;2022-12-29T17:09:22;51.90;;;32.25;;
48623;SDS011;34422;45.802;16.114;2022-12-29T17:11:52;56.95;;;34.75;;